sensor_id;sensor_type;location;lat;lon;timestamp;pressure;altitude;pressure_sealevel;temperature;humidity
68891;BME280;55932;48.702;8.884;2023-06-10T00:01:00;95790;;;14.5;53
68891;BME280;55932;48.702;8.884;2023-06-10T00:03:31;95780;;;14.6;53
68891;BME280;55932;48.702;8.884;2023-06-10T00:08:25;95780;;;14.6;53
68891;BME280;55932;48.702;8.884;2023-06-10T00:10:56;95780;;;14.5;53
68891;BME280;55932;48.702;8.884;2023-06-10T00:13:27;95780;;;14.4;53
68891;BME280;55932;48.702;8.884;2023-06-10T00:23:23;95790;;;14.4;53
68891;BME280;55932;48.702;8.884;2023-06-10T00:25:54;95780;;;14.5;53
68891;BME280;55932;48.702;8.884;2023-06-10T00:28:25;95780;;;14.5;53
68891;BME280;55932;48.702;8.884;2023-06-10T00:33:32;95780;;;14.3;53
68891;BME280;55932;48.702;8.884;2023-06-10T00:36:06;95780;;;14.2;53.5
68891;BME280;55932;48.702;8.884;2023-06-10T00:40:57;95780;;;14.2;53.5
68891;BME280;55932;48.702;8.884;2023-06-10T00:43:28;95780;;;14.2;53.5
68891;BME280;55932;48.702;8.884;2023-06-10T00:51:01;95780;;;14;53.5
68891;BME280;55932;48.702;8.884;2023-06-10T00:53:32;95780;;;14;53.5
68891;BME280;55932;48.702;8.884;2023-06-10T00:56:03;95770;;;13.9;53.5
68891;BME280;55932;48.702;8.884;2023-06-10T00:58:39;95780;;;14;53.5
68891;BME280;55932;48.702;8.884;2023-06-10T01:01:17;95780;;;14.1;53
68891;BME280;55932;48.702;8.884;2023-06-10T01:03:42;95780;;;14.2;53
68891;BME280;55932;48.702;8.884;2023-06-10T01:08:40;95780;;;13.9;53.5
68891;BME280;55932;48.702;8.884;2023-06-10T01:11:07;95780;;;13.8;53.5
68891;BME280;55932;48.702;8.884;2023-06-10T01:13:40;95770;;;13.7;54
68891;BME280;55932;48.702;8.884;2023-06-10T01:16:08;95770;;;13.6;54
68891;BME280;55932;48.702;8.884;2023-06-10T01:23:41;95770;;;13.8;53.5
68891;BME280;55932;48.702;8.884;2023-06-10T01:26:12;95770;;;13.7;53.5
68891;BME280;55932;48.702;8.884;2023-06-10T01:28:45;95770;;;13.6;54
68891;BME280;55932;48.702;8.884;2023-06-10T01:31:17;95770;;;13.6;54
68891;BME280;55932;48.702;8.884;2023-06-10T01:33:51;95770;;;13.6;53.5
68891;BME280;55932;48.702;8.884;2023-06-10T01:36:22;95770;;;13.6;53.5
68891;BME280;55932;48.702;8.884;2023-06-10T01:38:53;95770;;;13.6;53.5
68891;BME280;55932;48.702;8.884;2023-06-10T01:41:23;95770;;;13.6;53.5
68891;BME280;55932;48.702;8.884;2023-06-10T01:43:54;95770;;;13.6;53.5
68891;BME280;55932;48.702;8.884;2023-06-10T01:46:32;95780;;;13.7;53.5
68891;BME280;55932;48.702;8.884;2023-06-10T01:49:03;95780;;;13.7;53.5
68891;BME280;55932;48.702;8.884;2023-06-10T01:51:27;95780;;;13.6;53.5
68891;BME280;55932;48.702;8.884;2023-06-10T01:53:59;95780;;;13.6;53.5
68891;BME280;55932;48.702;8.884;2023-06-10T01:56:30;95780;;;13.5;53.5
68891;BME280;55932;48.702;8.884;2023-06-10T01:59:00;95780;;;13.5;54
68891;BME280;55932;48.702;8.884;2023-06-10T02:01:31;95780;;;13.5;54
68891;BME280;55932;48.702;8.884;2023-06-10T02:04:03;95780;;;13.5;54
68891;BME280;55932;48.702;8.884;2023-06-10T02:06:26;95780;;;13.5;54
68891;BME280;55932;48.702;8.884;2023-06-10T02:08:57;95780;;;13.4;54
68891;BME280;55932;48.702;8.884;2023-06-10T02:11:28;95790;;;13.3;54
68891;BME280;55932;48.702;8.884;2023-06-10T02:13:58;95780;;;13.3;54
68891;BME280;55932;48.702;8.884;2023-06-10T02:16:29;95780;;;13.3;54
68891;BME280;55932;48.702;8.884;2023-06-10T02:19:00;95790;;;13.4;54
68891;BME280;55932;48.702;8.884;2023-06-10T02:21:30;95780;;;13.4;54
68891;BME280;55932;48.702;8.884;2023-06-10T02:24:01;95780;;;13.5;54
68891;BME280;55932;48.702;8.884;2023-06-10T02:26:32;95790;;;13.5;54
68891;BME280;55932;48.702;8.884;2023-06-10T02:36:35;95800;;;13.4;54
68891;BME280;55932;48.702;8.884;2023-06-10T02:39:06;95800;;;13.3;54
68891;BME280;55932;48.702;8.884;2023-06-10T02:41:44;95800;;;13.1;54.5
68891;BME280;55932;48.702;8.884;2023-06-10T02:44:15;95800;;;13;54.5
68891;BME280;55932;48.702;8.884;2023-06-10T02:46:46;95810;;;13;54.5
68891;BME280;55932;48.702;8.884;2023-06-10T02:49:17;95800;;;13;54.5
68891;BME280;55932;48.702;8.884;2023-06-10T02:51:49;95810;;;13.1;54
68891;BME280;55932;48.702;8.884;2023-06-10T02:59:21;95810;;;13;54
68891;BME280;55932;48.702;8.884;2023-06-10T03:01:52;95810;;;13;54
68891;BME280;55932;48.702;8.884;2023-06-10T03:04:22;95810;;;12.9;54.5
68891;BME280;55932;48.702;8.884;2023-06-10T03:09:31;95810;;;12.9;54.5
68891;BME280;55932;48.702;8.884;2023-06-10T03:14:25;95810;;;13.1;54
68891;BME280;55932;48.702;8.884;2023-06-10T03:16:56;95820;;;13.1;54
68891;BME280;55932;48.702;8.884;2023-06-10T03:19:27;95820;;;13.1;54
68891;BME280;55932;48.702;8.884;2023-06-10T03:22:08;95810;;;13;54
68891;BME280;55932;48.702;8.884;2023-06-10T03:24:35;95820;;;13;54
68891;BME280;55932;48.702;8.884;2023-06-10T03:27:00;95810;;;13;54
68891;BME280;55932;48.702;8.884;2023-06-10T03:29:31;95810;;;13;54
68891;BME280;55932;48.702;8.884;2023-06-10T03:32:02;95820;;;13;54
68891;BME280;55932;48.702;8.884;2023-06-10T03:36:57;95820;;;12.9;54.5
68891;BME280;55932;48.702;8.884;2023-06-10T03:39:27;95830;;;12.8;54.5
68891;BME280;55932;48.702;8.884;2023-06-10T03:41:58;95820;;;12.7;54.5
68891;BME280;55932;48.702;8.884;2023-06-10T03:44:29;95820;;;12.6;54.5
68891;BME280;55932;48.702;8.884;2023-06-10T03:54:38;95840;;;12.6;54.5
68891;BME280;55932;48.702;8.884;2023-06-10T03:57:09;95840;;;12.6;54.5
68891;BME280;55932;48.702;8.884;2023-06-10T03:59:40;95840;;;12.6;54.5
68891;BME280;55932;48.702;8.884;2023-06-10T04:02:04;95840;;;12.6;54.5
68891;BME280;55932;48.702;8.884;2023-06-10T04:04:35;95840;;;12.6;54.5
68891;BME280;55932;48.702;8.884;2023-06-10T04:07:06;95840;;;12.7;54.5
68891;BME280;55932;48.702;8.884;2023-06-10T04:09:37;95830;;;12.8;54
68891;BME280;55932;48.702;8.884;2023-06-10T04:12:08;95830;;;12.9;54
68891;BME280;55932;48.702;8.884;2023-06-10T04:19:41;95840;;;13.2;54
68891;BME280;55932;48.702;8.884;2023-06-10T04:22:11;95840;;;13.2;54
68891;BME280;55932;48.702;8.884;2023-06-10T04:24:42;95840;;;13.3;53.5
68891;BME280;55932;48.702;8.884;2023-06-10T04:27:25;95850;;;13.4;53.5
68891;BME280;55932;48.702;8.884;2023-06-10T04:29:56;95850;;;13.4;53.5
68891;BME280;55932;48.702;8.884;2023-06-10T04:32:26;95840;;;13.6;53.5
68891;BME280;55932;48.702;8.884;2023-06-10T04:37:20;95850;;;13.8;53.5
68891;BME280;55932;48.702;8.884;2023-06-10T04:39:51;95850;;;13.9;53.5
68891;BME280;55932;48.702;8.884;2023-06-10T04:42:22;95850;;;14.1;53
68891;BME280;55932;48.702;8.884;2023-06-10T04:45:00;95850;;;14.3;53
68891;BME280;55932;48.702;8.884;2023-06-10T04:50:08;95860;;;14.6;53
68891;BME280;55932;48.702;8.884;2023-06-10T04:52:32;95850;;;14.8;52.5
68891;BME280;55932;48.702;8.884;2023-06-10T04:55:01;95850;;;14.9;52.5
68891;BME280;55932;48.702;8.884;2023-06-10T04:59:55;95850;;;15.1;52.5
68891;BME280;55932;48.702;8.884;2023-06-10T05:02:26;95850;;;15.3;52.5
68891;BME280;55932;48.702;8.884;2023-06-10T05:04:57;95850;;;15.4;52.5
68891;BME280;55932;48.702;8.884;2023-06-10T05:07:29;95850;;;15.6;52
68891;BME280;55932;48.702;8.884;2023-06-10T05:09:59;95850;;;15.5;52.5
68891;BME280;55932;48.702;8.884;2023-06-10T05:12:30;95850;;;15.7;53
68891;BME280;55932;48.702;8.884;2023-06-10T05:15:08;95850;;;15.9;52.5
68891;BME280;55932;48.702;8.884;2023-06-10T05:17:39;95850;;;16.1;52
68891;BME280;55932;48.702;8.884;2023-06-10T05:25:25;95860;;;16.5;51.5
68891;BME280;55932;48.702;8.884;2023-06-10T05:27:42;95860;;;16.6;51.5
68891;BME280;55932;48.702;8.884;2023-06-10T05:32:35;95870;;;16.7;52
68891;BME280;55932;48.702;8.884;2023-06-10T05:35:06;95870;;;16.8;52
68891;BME280;55932;48.702;8.884;2023-06-10T05:40:08;95870;;;17.1;51.5
68891;BME280;55932;48.702;8.884;2023-06-10T05:42:39;95870;;;17.2;51.5
68891;BME280;55932;48.702;8.884;2023-06-10T05:45:29;95870;;;17.3;51.5
68891;BME280;55932;48.702;8.884;2023-06-10T05:52:49;95870;;;17.6;51.5
68891;BME280;55932;48.702;8.884;2023-06-10T05:55:19;95880;;;17.7;51.5
68891;BME280;55932;48.702;8.884;2023-06-10T06:00:13;95870;;;17.7;51.5
68891;BME280;55932;48.702;8.884;2023-06-10T06:05:21;95870;;;17.7;52
68891;BME280;55932;48.702;8.884;2023-06-10T06:07:52;95870;;;17.8;51.5
68891;BME280;55932;48.702;8.884;2023-06-10T06:15:25;95870;;;18.1;51.5
68891;BME280;55932;48.702;8.884;2023-06-10T06:17:55;95870;;;18.3;51.5
68891;BME280;55932;48.702;8.884;2023-06-10T06:20:25;95870;;;18.5;51.5
68891;BME280;55932;48.702;8.884;2023-06-10T06:25:19;95880;;;18.9;51
68891;BME280;55932;48.702;8.884;2023-06-10T06:27:51;95890;;;18.9;51
68891;BME280;55932;48.702;8.884;2023-06-10T06:30:21;95890;;;19;51.5
68891;BME280;55932;48.702;8.884;2023-06-10T06:32:52;95880;;;19.1;51.5
68891;BME280;55932;48.702;8.884;2023-06-10T06:58:06;95890;;;20.2;50.5
68891;BME280;55932;48.702;8.884;2023-06-10T07:00:36;95890;;;20.5;50.5
68891;BME280;55932;48.702;8.884;2023-06-10T07:02:59;95890;;;20.7;50
68891;BME280;55932;48.702;8.884;2023-06-10T07:05:31;95890;;;21.1;50
68891;BME280;55932;48.702;8.884;2023-06-10T07:08:01;95880;;;24.2;45
68891;BME280;55932;48.702;8.884;2023-06-10T07:10:32;95890;;;25.5;44
68891;BME280;55932;48.702;8.884;2023-06-10T07:13:04;95880;;;26.4;43.5
68891;BME280;55932;48.702;8.884;2023-06-10T07:15:34;95890;;;27.9;41.5
68891;BME280;55932;48.702;8.884;2023-06-10T07:18:05;95880;;;28.5;41.5
68891;BME280;55932;48.702;8.884;2023-06-10T07:20:43;95880;;;28.9;41
68891;BME280;55932;48.702;8.884;2023-06-10T07:28:09;95880;;;31.5;39
68891;BME280;55932;48.702;8.884;2023-06-10T07:30:40;95880;;;30.9;41
68891;BME280;55932;48.702;8.884;2023-06-10T07:33:11;95880;;;31;41.5
68891;BME280;55932;48.702;8.884;2023-06-10T07:35:42;95880;;;31.7;40.5
68891;BME280;55932;48.702;8.884;2023-06-10T07:38:13;95880;;;31.4;42
68891;BME280;55932;48.702;8.884;2023-06-10T07:45:46;95870;;;31;43.5
68891;BME280;55932;48.702;8.884;2023-06-10T07:48:17;95870;;;30.6;44
68891;BME280;55932;48.702;8.884;2023-06-10T07:53:19;95870;;;30.9;44
68891;BME280;55932;48.702;8.884;2023-06-10T07:55:50;95870;;;31.3;43.5
68891;BME280;55932;48.702;8.884;2023-06-10T07:58:21;95880;;;31.3;44
68891;BME280;55932;48.702;8.884;2023-06-10T08:00:59;95870;;;31;44.5
68891;BME280;55932;48.702;8.884;2023-06-10T08:03:30;95870;;;31.3;44
68891;BME280;55932;48.702;8.884;2023-06-10T08:10:56;95870;;;30.6;45.5
68891;BME280;55932;48.702;8.884;2023-06-10T08:13:27;95870;;;30.4;46
68891;BME280;55932;48.702;8.884;2023-06-10T08:15:58;95870;;;31;45
68891;BME280;55932;48.702;8.884;2023-06-10T08:18:29;95870;;;32.3;43
68891;BME280;55932;48.702;8.884;2023-06-10T08:21:00;95870;;;32;44
68891;BME280;55932;48.702;8.884;2023-06-10T08:23:31;95870;;;31;45.5
68891;BME280;55932;48.702;8.884;2023-06-10T08:26:02;95870;;;31.5;44.5
68891;BME280;55932;48.702;8.884;2023-06-10T08:28:33;95870;;;31.6;44.5
68891;BME280;55932;48.702;8.884;2023-06-10T08:33:35;95870;;;32.3;44
68891;BME280;55932;48.702;8.884;2023-06-10T08:36:07;95870;;;32.9;43.5
68891;BME280;55932;48.702;8.884;2023-06-10T08:38:37;95880;;;32.7;44
68891;BME280;55932;48.702;8.884;2023-06-10T08:41:14;95880;;;31.9;45
68891;BME280;55932;48.702;8.884;2023-06-10T08:43:40;95870;;;31.5;45.5
68891;BME280;55932;48.702;8.884;2023-06-10T08:46:15;95870;;;31.3;46
68891;BME280;55932;48.702;8.884;2023-06-10T08:48:42;95880;;;31.2;46
68891;BME280;55932;48.702;8.884;2023-06-10T08:51:12;95880;;;31.4;45.5
68891;BME280;55932;48.702;8.884;2023-06-10T08:53:48;95870;;;31.6;45
68891;BME280;55932;48.702;8.884;2023-06-10T08:56:15;95870;;;31.6;45.5
68891;BME280;55932;48.702;8.884;2023-06-10T09:01:17;95880;;;31.9;45
68891;BME280;55932;48.702;8.884;2023-06-10T09:03:47;95870;;;32.5;44.5
68891;BME280;55932;48.702;8.884;2023-06-10T09:06:18;95880;;;32.1;45
68891;BME280;55932;48.702;8.884;2023-06-10T09:09:03;95870;;;31.6;46
68891;BME280;55932;48.702;8.884;2023-06-10T09:11:21;95870;;;31.1;46.5
68891;BME280;55932;48.702;8.884;2023-06-10T09:16:21;95870;;;30.5;47
68891;BME280;55932;48.702;8.884;2023-06-10T09:18:53;95870;;;30.6;47
68891;BME280;55932;48.702;8.884;2023-06-10T09:21:24;95870;;;31;46
68891;BME280;55932;48.702;8.884;2023-06-10T09:23:55;95860;;;30.7;46.5
68891;BME280;55932;48.702;8.884;2023-06-10T09:26:27;95870;;;30.9;46.5
68891;BME280;55932;48.702;8.884;2023-06-10T09:29:02;95860;;;30.8;46.5
68891;BME280;55932;48.702;8.884;2023-06-10T09:31:27;95870;;;31.1;46
68891;BME280;55932;48.702;8.884;2023-06-10T09:34:06;95870;;;31.1;46
68891;BME280;55932;48.702;8.884;2023-06-10T09:36:35;95860;;;30.8;46.5
68891;BME280;55932;48.702;8.884;2023-06-10T09:44:12;95860;;;32;44.5
68891;BME280;55932;48.702;8.884;2023-06-10T09:49:08;95860;;;32.1;45
68891;BME280;55932;48.702;8.884;2023-06-10T09:51:48;95860;;;32.6;44
68891;BME280;55932;48.702;8.884;2023-06-10T09:56:39;95860;;;31.1;46.5
68891;BME280;55932;48.702;8.884;2023-06-10T10:01:39;95860;;;30.4;47
68891;BME280;55932;48.702;8.884;2023-06-10T10:09:11;95850;;;28.8;49
68891;BME280;55932;48.702;8.884;2023-06-10T10:11:41;95860;;;30;47.5
68891;BME280;55932;48.702;8.884;2023-06-10T10:16:36;95860;;;31.1;45.5
68891;BME280;55932;48.702;8.884;2023-06-10T10:19:10;95850;;;30.6;46
68891;BME280;55932;48.702;8.884;2023-06-10T10:21:45;95850;;;30.6;46
68891;BME280;55932;48.702;8.884;2023-06-10T10:24:09;95860;;;31;46
68891;BME280;55932;48.702;8.884;2023-06-10T10:26:52;95860;;;30.9;46
68891;BME280;55932;48.702;8.884;2023-06-10T10:29:28;95850;;;30.6;46
68891;BME280;55932;48.702;8.884;2023-06-10T10:31:52;95860;;;30.9;46
68891;BME280;55932;48.702;8.884;2023-06-10T10:34:16;95860;;;31;45.5
68891;BME280;55932;48.702;8.884;2023-06-10T10:39:10;95850;;;29.4;47
68891;BME280;55932;48.702;8.884;2023-06-10T10:41:40;95850;;;29.5;47
68891;BME280;55932;48.702;8.884;2023-06-10T10:44:11;95850;;;29.4;47.5
68891;BME280;55932;48.702;8.884;2023-06-10T10:46:43;95840;;;28.2;48.5
68891;BME280;55932;48.702;8.884;2023-06-10T10:49:07;95850;;;27.1;49.5
68891;BME280;55932;48.702;8.884;2023-06-10T10:56:38;95840;;;29.4;47
68891;BME280;55932;48.702;8.884;2023-06-10T10:59:10;95830;;;30.6;45.5
68891;BME280;55932;48.702;8.884;2023-06-10T11:01:41;95830;;;31.1;45
68891;BME280;55932;48.702;8.884;2023-06-10T11:04:12;95840;;;31.3;44.5
68891;BME280;55932;48.702;8.884;2023-06-10T11:06:51;95840;;;32;44
68891;BME280;55932;48.702;8.884;2023-06-10T11:09:28;95830;;;31.1;44.5
68891;BME280;55932;48.702;8.884;2023-06-10T11:14:14;95840;;;29.6;47
68891;BME280;55932;48.702;8.884;2023-06-10T11:22:02;95830;;;33;43
68891;BME280;55932;48.702;8.884;2023-06-10T11:24:17;95830;;;32.6;43.5
68891;BME280;55932;48.702;8.884;2023-06-10T11:26:55;95830;;;32.3;44
68891;BME280;55932;48.702;8.884;2023-06-10T11:29:32;95830;;;32.5;44
68891;BME280;55932;48.702;8.884;2023-06-10T11:34:27;95820;;;32.3;44.5
68891;BME280;55932;48.702;8.884;2023-06-10T11:36:58;95820;;;32.6;44
68891;BME280;55932;48.702;8.884;2023-06-10T11:41:53;95830;;;30;46.5
68891;BME280;55932;48.702;8.884;2023-06-10T11:49:25;95820;;;31.2;46
68891;BME280;55932;48.702;8.884;2023-06-10T11:51:57;95820;;;30.8;46
68891;BME280;55932;48.702;8.884;2023-06-10T11:54:27;95820;;;31.4;45.5
68891;BME280;55932;48.702;8.884;2023-06-10T11:56:58;95820;;;30.5;46
68891;BME280;55932;48.702;8.884;2023-06-10T11:59:42;95820;;;30.2;46.5
68891;BME280;55932;48.702;8.884;2023-06-10T12:02:18;95820;;;31;45.5
68891;BME280;55932;48.702;8.884;2023-06-10T12:04:35;95810;;;32;45
68891;BME280;55932;48.702;8.884;2023-06-10T12:07:06;95810;;;31.9;45
68891;BME280;55932;48.702;8.884;2023-06-10T12:09:37;95810;;;31.1;45.5
68891;BME280;55932;48.702;8.884;2023-06-10T12:12:15;95810;;;31.4;45.5
68891;BME280;55932;48.702;8.884;2023-06-10T12:14:49;95820;;;30.9;45.5
68891;BME280;55932;48.702;8.884;2023-06-10T12:17:10;95820;;;29.5;46.5
68891;BME280;55932;48.702;8.884;2023-06-10T12:19:41;95810;;;28.8;47.5
68891;BME280;55932;48.702;8.884;2023-06-10T12:22:13;95810;;;30.1;47
68891;BME280;55932;48.702;8.884;2023-06-10T12:24:44;95820;;;31.4;45.5
68891;BME280;55932;48.702;8.884;2023-06-10T12:27:14;95810;;;32.4;44
68891;BME280;55932;48.702;8.884;2023-06-10T12:32:34;95810;;;34;42
68891;BME280;55932;48.702;8.884;2023-06-10T12:37:24;95810;;;30.3;45.5
68891;BME280;55932;48.702;8.884;2023-06-10T12:47:29;95810;;;27.8;49
68891;BME280;55932;48.702;8.884;2023-06-10T12:49:59;95810;;;29.5;47
68891;BME280;55932;48.702;8.884;2023-06-10T12:52:22;95810;;;31;45.5
68891;BME280;55932;48.702;8.884;2023-06-10T12:54:53;95800;;;31.8;44.5
68891;BME280;55932;48.702;8.884;2023-06-10T13:02:26;95800;;;29.8;45.5
68891;BME280;55932;48.702;8.884;2023-06-10T13:07:36;95800;;;28.3;47.5
68891;BME280;55932;48.702;8.884;2023-06-10T13:12:36;95800;;;30.1;46
68891;BME280;55932;48.702;8.884;2023-06-10T13:15:18;95800;;;30.3;46
68891;BME280;55932;48.702;8.884;2023-06-10T13:17:35;95800;;;29.2;46.5
68891;BME280;55932;48.702;8.884;2023-06-10T13:22:30;95790;;;28;48
68891;BME280;55932;48.702;8.884;2023-06-10T13:27:32;95790;;;27.4;48.5
68891;BME280;55932;48.702;8.884;2023-06-10T13:30:03;95790;;;27.5;48
68891;BME280;55932;48.702;8.884;2023-06-10T13:32:40;95780;;;27.6;48
68891;BME280;55932;48.702;8.884;2023-06-10T13:35:17;95780;;;27.7;48
68891;BME280;55932;48.702;8.884;2023-06-10T13:37:54;95780;;;27.6;47.5
68891;BME280;55932;48.702;8.884;2023-06-10T13:40:14;95780;;;27.9;47.5
68891;BME280;55932;48.702;8.884;2023-06-10T13:45:12;95790;;;27.9;47.5
68891;BME280;55932;48.702;8.884;2023-06-10T13:47:37;95780;;;27.7;48
68891;BME280;55932;48.702;8.884;2023-06-10T13:50:08;95780;;;27.4;48
68891;BME280;55932;48.702;8.884;2023-06-10T13:52:41;95780;;;28.1;47.5
68891;BME280;55932;48.702;8.884;2023-06-10T13:55:09;95770;;;30.2;45.5
68891;BME280;55932;48.702;8.884;2023-06-10T13:57:47;95770;;;31.3;44.5
68891;BME280;55932;48.702;8.884;2023-06-10T14:05:13;95770;;;33.6;42.5
68891;BME280;55932;48.702;8.884;2023-06-10T14:07:44;95760;;;34.1;41.5
68891;BME280;55932;48.702;8.884;2023-06-10T14:12:52;95770;;;33.5;42.5
68891;BME280;55932;48.702;8.884;2023-06-10T14:15:23;95760;;;32.8;43.5
68891;BME280;55932;48.702;8.884;2023-06-10T14:17:52;95760;;;32.4;44
68891;BME280;55932;48.702;8.884;2023-06-10T14:20:22;95760;;;33;43.5
68891;BME280;55932;48.702;8.884;2023-06-10T14:22:53;95750;;;33.9;42
68891;BME280;55932;48.702;8.884;2023-06-10T14:25:30;95750;;;33.6;42.5
68891;BME280;55932;48.702;8.884;2023-06-10T14:27:53;95750;;;33.8;42.5
68891;BME280;55932;48.702;8.884;2023-06-10T14:30:38;95760;;;32.6;43.5
68891;BME280;55932;48.702;8.884;2023-06-10T14:33:00;95750;;;31.9;44.5
68891;BME280;55932;48.702;8.884;2023-06-10T14:35:24;95750;;;31.6;44.5
68891;BME280;55932;48.702;8.884;2023-06-10T14:37:53;95750;;;31;45
68891;BME280;55932;48.702;8.884;2023-06-10T14:45:23;95750;;;30.7;45
68891;BME280;55932;48.702;8.884;2023-06-10T14:47:50;95740;;;29.8;46
68891;BME280;55932;48.702;8.884;2023-06-10T14:52:52;95730;;;31.9;44
68891;BME280;55932;48.702;8.884;2023-06-10T14:55:23;95740;;;33;42.5
68891;BME280;55932;48.702;8.884;2023-06-10T14:57:54;95730;;;33;42.5
68891;BME280;55932;48.702;8.884;2023-06-10T15:00:25;95730;;;33.4;42
68891;BME280;55932;48.702;8.884;2023-06-10T15:02:56;95730;;;33.8;42
68891;BME280;55932;48.702;8.884;2023-06-10T15:05:27;95730;;;31.8;43.5
68891;BME280;55932;48.702;8.884;2023-06-10T15:07:57;95740;;;29.6;45.5
68891;BME280;55932;48.702;8.884;2023-06-10T15:10:28;95740;;;28.3;47
68891;BME280;55932;48.702;8.884;2023-06-10T15:12:59;95740;;;27.7;48
68891;BME280;55932;48.702;8.884;2023-06-10T15:15:45;95730;;;28.8;47
68891;BME280;55932;48.702;8.884;2023-06-10T15:23:23;95730;;;29.5;45
68891;BME280;55932;48.702;8.884;2023-06-10T15:25:44;95720;;;28.2;46.5
68891;BME280;55932;48.702;8.884;2023-06-10T15:28:10;95720;;;28.5;46.5
68891;BME280;55932;48.702;8.884;2023-06-10T15:30:40;95730;;;29;46
68891;BME280;55932;48.702;8.884;2023-06-10T15:33:10;95730;;;30.5;44.5
68891;BME280;55932;48.702;8.884;2023-06-10T15:38:04;95730;;;29;45.5
68891;BME280;55932;48.702;8.884;2023-06-10T15:40:35;95720;;;27.8;46.5
68891;BME280;55932;48.702;8.884;2023-06-10T15:43:14;95720;;;27.2;47.5
68891;BME280;55932;48.702;8.884;2023-06-10T15:45:44;95720;;;28.3;46.5
68891;BME280;55932;48.702;8.884;2023-06-10T15:48:15;95720;;;30.3;44.5
68891;BME280;55932;48.702;8.884;2023-06-10T15:55:49;95720;;;33.1;41.5
68891;BME280;55932;48.702;8.884;2023-06-10T15:58:18;95720;;;32.5;42
68891;BME280;55932;48.702;8.884;2023-06-10T16:00:48;95720;;;32.3;42.5
68891;BME280;55932;48.702;8.884;2023-06-10T16:03:22;95710;;;32.3;42.5
68891;BME280;55932;48.702;8.884;2023-06-10T16:05:55;95710;;;32;42.5
68891;BME280;55932;48.702;8.884;2023-06-10T16:08:18;95710;;;31.8;43
68891;BME280;55932;48.702;8.884;2023-06-10T16:10:49;95710;;;31.8;43
68891;BME280;55932;48.702;8.884;2023-06-10T16:13:19;95720;;;31.1;43.5
68891;BME280;55932;48.702;8.884;2023-06-10T16:18:15;95710;;;29.9;44.5
68891;BME280;55932;48.702;8.884;2023-06-10T16:20:45;95720;;;28.6;46
68891;BME280;55932;48.702;8.884;2023-06-10T16:23:15;95710;;;27.6;47
68891;BME280;55932;48.702;8.884;2023-06-10T16:25:53;95710;;;27.2;47.5
68891;BME280;55932;48.702;8.884;2023-06-10T16:28:24;95710;;;28;47.5
68891;BME280;55932;48.702;8.884;2023-06-10T16:30:47;95710;;;29;46
68891;BME280;55932;48.702;8.884;2023-06-10T16:33:27;95710;;;29.2;45.5
68891;BME280;55932;48.702;8.884;2023-06-10T16:35:49;95710;;;29.9;44.5
68891;BME280;55932;48.702;8.884;2023-06-10T16:41:03;95720;;;30.7;43.5
68891;BME280;55932;48.702;8.884;2023-06-10T16:43:34;95710;;;30.6;43.5
68891;BME280;55932;48.702;8.884;2023-06-10T16:45:58;95710;;;30.7;43
68891;BME280;55932;48.702;8.884;2023-06-10T16:50:52;95710;;;29.9;43.5
68891;BME280;55932;48.702;8.884;2023-06-10T16:53:24;95710;;;29.1;44
68891;BME280;55932;48.702;8.884;2023-06-10T16:55:53;95710;;;28.5;45
68891;BME280;55932;48.702;8.884;2023-06-10T17:00:47;95710;;;27.9;45.5
68891;BME280;55932;48.702;8.884;2023-06-10T17:05:49;95720;;;27.5;46.5
68891;BME280;55932;48.702;8.884;2023-06-10T17:08:20;95730;;;27.3;46.5
68891;BME280;55932;48.702;8.884;2023-06-10T17:15:53;95730;;;27.2;46.5
68891;BME280;55932;48.702;8.884;2023-06-10T17:18:23;95740;;;27.2;46.5
68891;BME280;55932;48.702;8.884;2023-06-10T17:20:54;95740;;;27;47
68891;BME280;55932;48.702;8.884;2023-06-10T17:26:08;95740;;;26.9;47
68891;BME280;55932;48.702;8.884;2023-06-10T17:28:38;95740;;;26.8;47
68891;BME280;55932;48.702;8.884;2023-06-10T17:31:21;95750;;;26.7;47
68891;BME280;55932;48.702;8.884;2023-06-10T17:33:39;95750;;;26.5;47
68891;BME280;55932;48.702;8.884;2023-06-10T17:36:09;95750;;;26.5;47
68891;BME280;55932;48.702;8.884;2023-06-10T17:41:04;95750;;;26.4;47.5
68891;BME280;55932;48.702;8.884;2023-06-10T17:43:35;95740;;;26.4;47.5
68891;BME280;55932;48.702;8.884;2023-06-10T17:46:06;95750;;;26.4;47.5
68891;BME280;55932;48.702;8.884;2023-06-10T17:48:43;95750;;;26.3;47.5
68891;BME280;55932;48.702;8.884;2023-06-10T17:53:39;95760;;;26.2;47.5
68891;BME280;55932;48.702;8.884;2023-06-10T17:58:45;95760;;;26;47.5
68891;BME280;55932;48.702;8.884;2023-06-10T18:03:49;95750;;;25.8;48
68891;BME280;55932;48.702;8.884;2023-06-10T18:06:19;95760;;;25.6;48
68891;BME280;55932;48.702;8.884;2023-06-10T18:08:50;95760;;;25.4;48
68891;BME280;55932;48.702;8.884;2023-06-10T18:13:51;95760;;;25.2;48.5
68891;BME280;55932;48.702;8.884;2023-06-10T18:18:50;95770;;;25.4;48
68891;BME280;55932;48.702;8.884;2023-06-10T18:23:50;95770;;;25.7;47.5
68891;BME280;55932;48.702;8.884;2023-06-10T18:26:27;95770;;;25.8;47.5
68891;BME280;55932;48.702;8.884;2023-06-10T18:28:51;95780;;;25.8;47.5
68891;BME280;55932;48.702;8.884;2023-06-10T18:31:20;95780;;;25.8;47.5
68891;BME280;55932;48.702;8.884;2023-06-10T18:38:46;95780;;;25.4;48
68891;BME280;55932;48.702;8.884;2023-06-10T18:41:17;95780;;;25.2;48
68891;BME280;55932;48.702;8.884;2023-06-10T18:43:54;95790;;;25;48.5
68891;BME280;55932;48.702;8.884;2023-06-10T18:51:26;95800;;;24.6;48.5
68891;BME280;55932;48.702;8.884;2023-06-10T18:53:58;95810;;;24.5;48.5
68891;BME280;55932;48.702;8.884;2023-06-10T18:56:26;95810;;;24.3;48.5
68891;BME280;55932;48.702;8.884;2023-06-10T18:58:57;95820;;;24.2;49
68891;BME280;55932;48.702;8.884;2023-06-10T19:03:57;95820;;;24;49
68891;BME280;55932;48.702;8.884;2023-06-10T19:14:01;95830;;;23.9;49
68891;BME280;55932;48.702;8.884;2023-06-10T19:16:31;95830;;;23.9;49
68891;BME280;55932;48.702;8.884;2023-06-10T19:18:55;95840;;;23.8;49
68891;BME280;55932;48.702;8.884;2023-06-10T19:21:26;95840;;;23.6;49
68891;BME280;55932;48.702;8.884;2023-06-10T19:24:03;95840;;;23.5;49
68891;BME280;55932;48.702;8.884;2023-06-10T19:28:51;95850;;;23.3;49.5
68891;BME280;55932;48.702;8.884;2023-06-10T19:31:27;95850;;;23.2;49.5
68891;BME280;55932;48.702;8.884;2023-06-10T19:33:53;95850;;;23.1;49.5
68891;BME280;55932;48.702;8.884;2023-06-10T19:36:24;95850;;;23;49.5